createdAt,value
2022-12-25T00:03:27.962Z,2.63
2022-12-25T00:13:31.435Z,2.51
2022-12-25T00:23:35.140Z,2.80
2022-12-25T00:33:41.768Z,2.85
2022-12-25T00:43:44.426Z,2.92
2022-12-25T00:53:47.184Z,2.92
2022-12-25T01:03:49.664Z,2.95
2022-12-25T01:13:52.328Z,3.12
2022-12-25T01:23:54.944Z,2.89
2022-12-25T01:33:57.492Z,2.92
2022-12-25T01:44:05.814Z,3.18
2022-12-25T01:54:16.169Z,2.96
2022-12-25T02:04:25.199Z,3.16
2022-12-25T02:14:33.280Z,3.16
2022-12-25T02:24:56.828Z,3.27
2022-12-25T02:35:02.323Z,3.36
2022-12-25T02:45:23.873Z,3.70
2022-12-25T02:55:51.025Z,3.82
2022-12-25T03:06:17.855Z,3.51
2022-12-25T03:16:39.454Z,3.33
2022-12-25T03:26:54.861Z,3.16
2022-12-25T03:37:06.405Z,3.33
2022-12-25T03:47:37.420Z,3.13
2022-12-25T03:57:58.936Z,3.16
2022-12-25T04:08:20.169Z,3.28
2022-12-25T04:18:41.315Z,3.18
2022-12-25T04:29:02.632Z,3.28
2022-12-25T04:39:05.142Z,3.19
2022-12-25T04:49:07.665Z,3.46
2022-12-25T04:59:10.125Z,3.32
2022-12-25T05:09:12.943Z,3.36
2022-12-25T05:19:17.644Z,3.24
2022-12-25T05:29:20.200Z,3.22
2022-12-25T05:39:23.209Z,3.32
2022-12-25T05:49:25.760Z,3.60
2022-12-25T05:59:31.887Z,3.44
2022-12-25T06:09:34.363Z,3.72
2022-12-25T06:19:37.313Z,3.44
2022-12-25T06:29:40.835Z,3.47
2022-12-25T06:39:43.327Z,3.37
2022-12-25T06:49:45.758Z,3.29
2022-12-25T06:59:54.618Z,3.37
2022-12-25T07:09:57.720Z,3.08
2022-12-25T07:20:01.764Z,3.21
2022-12-25T07:30:05.018Z,3.87
2022-12-25T07:40:08.095Z,3.65
2022-12-25T07:50:10.986Z,4.11
2022-12-25T08:00:14.327Z,5.26
2022-12-25T08:10:16.993Z,5.45
2022-12-25T08:20:19.532Z,5.37
2022-12-25T08:30:22.043Z,5.44
2022-12-25T08:40:24.733Z,5.60
2022-12-25T08:50:27.304Z,6.02
2022-12-25T09:00:29.829Z,6.21
2022-12-25T09:10:36.828Z,6.55
2022-12-25T09:20:39.343Z,6.77
2022-12-25T09:30:41.894Z,6.84
2022-12-25T09:40:45.030Z,7.40
2022-12-25T09:51:03.183Z,8.07
2022-12-25T10:01:31.840Z,8.31
2022-12-25T10:12:01.358Z,8.75
2022-12-25T10:22:12.114Z,9.93
2022-12-25T10:32:14.573Z,10.72
2022-12-25T10:42:38.769Z,11.42
2022-12-25T10:53:05.840Z,11.76
2022-12-25T11:03:22.641Z,11.64
2022-12-25T11:13:30.590Z,11.91
2022-12-25T11:23:33.199Z,12.14
2022-12-25T11:33:42.548Z,12.71
2022-12-25T11:43:56.066Z,13.88
2022-12-25T11:54:17.035Z,13.84
2022-12-25T12:04:31.783Z,14.98
2022-12-25T12:14:48.632Z,14.95
2022-12-25T12:24:59.083Z,15.44
2022-12-25T12:35:32.892Z,15.76
2022-12-25T12:45:38.116Z,16.15
2022-12-25T12:55:40.815Z,14.52
2022-12-25T13:05:52.970Z,12.65
2022-12-25T13:15:57.627Z,11.82
2022-12-25T13:26:02.961Z,11.55
2022-12-25T13:36:11.402Z,11.04
2022-12-25T13:46:15.738Z,10.75
2022-12-25T13:56:18.419Z,10.61
2022-12-25T14:06:31.355Z,10.45
2022-12-25T14:16:34.778Z,10.04
2022-12-25T14:26:37.353Z,9.78
2022-12-25T14:36:40.370Z,9.60
2022-12-25T14:46:42.887Z,9.47
2022-12-25T14:56:50.837Z,9.30
2022-12-25T15:06:56.701Z,8.96
2022-12-25T15:17:02.870Z,8.68
2022-12-25T15:27:12.419Z,8.44
2022-12-25T15:37:15.539Z,8.17
2022-12-25T15:47:22.920Z,7.59
2022-12-25T15:57:26.420Z,7.73
2022-12-25T16:07:31.957Z,7.49
2022-12-25T16:17:34.794Z,7.65
2022-12-25T16:27:37.283Z,7.38
2022-12-25T16:37:40.079Z,7.56
2022-12-25T16:47:42.731Z,7.50
2022-12-25T16:57:47.808Z,7.45
2022-12-25T17:07:50.772Z,7.25
2022-12-25T17:17:53.418Z,7.33
2022-12-25T17:27:55.966Z,7.21
2022-12-25T17:37:58.462Z,7.52
2022-12-25T17:48:01.017Z,7.54
2022-12-25T17:58:05.406Z,7.62
2022-12-25T18:08:08.201Z,7.44
2022-12-25T18:18:10.691Z,7.56
2022-12-25T18:28:13.255Z,7.59
2022-12-25T18:38:15.718Z,7.50
2022-12-25T18:48:18.193Z,7.68
2022-12-25T18:58:20.907Z,7.67
2022-12-25T19:08:23.360Z,7.80
2022-12-25T19:18:26.047Z,7.63
2022-12-25T19:28:28.560Z,7.73
2022-12-25T19:38:31.247Z,7.78
2022-12-25T19:48:34.899Z,7.70
2022-12-25T19:58:37.500Z,7.61
2022-12-25T20:08:41.276Z,7.62
2022-12-25T20:18:43.902Z,7.54
2022-12-25T20:28:46.688Z,7.36
2022-12-25T20:38:49.263Z,7.61
2022-12-25T20:48:53.072Z,7.59
2022-12-25T20:58:58.327Z,7.55
2022-12-25T21:09:00.951Z,7.36
2022-12-25T21:19:03.555Z,7.39
2022-12-25T21:29:09.974Z,7.45
2022-12-25T21:39:12.812Z,7.62
2022-12-25T21:49:38.138Z,7.20
2022-12-25T21:59:40.739Z,7.35
2022-12-25T22:09:48.119Z,7.34
2022-12-25T22:19:51.081Z,6.97
2022-12-25T22:29:53.631Z,7.19
2022-12-25T22:39:56.153Z,6.90
2022-12-25T22:49:58.884Z,7.08
2022-12-25T23:00:01.824Z,7.27
2022-12-25T23:10:06.125Z,7.02
2022-12-25T23:20:27.995Z,6.50
2022-12-25T23:30:30.728Z,6.39
2022-12-25T23:40:33.503Z,6.39
2022-12-25T23:50:35.980Z,6.13
